createdAt,value
2018-12-24T00:01:05.809Z,10.00
2018-12-24T00:03:37.786Z,7.40
2018-12-24T00:06:09.807Z,10.53
2018-12-24T00:08:40.446Z,7.50
2018-12-24T00:11:12.032Z,8.10
2018-12-24T00:13:43.470Z,8.90
2018-12-24T00:16:14.150Z,6.63
2018-12-24T00:18:44.607Z,7.10
2018-12-24T00:21:16.095Z,6.23
2018-12-24T00:23:47.013Z,9.10
2018-12-24T00:26:17.780Z,9.27
2018-12-24T00:28:48.175Z,8.43
2018-12-24T00:31:18.926Z,8.53
2018-12-24T00:33:49.366Z,8.40
2018-12-24T00:36:20.047Z,9.70
2018-12-24T00:38:50.609Z,9.50
2018-12-24T00:41:20.866Z,7.73
2018-12-24T00:43:51.216Z,9.20
2018-12-24T00:46:21.645Z,7.13
2018-12-24T00:48:52.378Z,7.53
2018-12-24T00:51:23.962Z,9.20
2018-12-24T00:53:55.318Z,9.10
2018-12-24T00:56:26.346Z,8.27
2018-12-24T00:58:56.619Z,7.80
2018-12-24T01:01:28.132Z,8.53
2018-12-24T01:03:58.627Z,11.10
2018-12-24T01:06:29.244Z,8.83
2018-12-24T01:09:00.053Z,8.73
2018-12-24T01:11:30.452Z,8.67
2018-12-24T01:14:00.956Z,9.13
2018-12-24T01:16:31.486Z,6.70
2018-12-24T01:19:01.883Z,8.60
2018-12-24T01:21:32.687Z,8.77
2018-12-24T01:24:03.297Z,9.30
2018-12-24T01:26:34.409Z,9.60
2018-12-24T01:29:04.497Z,8.50
2018-12-24T01:31:35.162Z,8.00
2018-12-24T01:34:05.567Z,8.63
2018-12-24T01:36:36.696Z,9.73
2018-12-24T01:39:09.051Z,7.10
2018-12-24T01:41:39.343Z,8.33
2018-12-24T01:44:10.228Z,7.73
2018-12-24T01:46:41.284Z,9.97
2018-12-24T01:49:12.164Z,6.43
2018-12-24T01:51:43.013Z,9.23
2018-12-24T01:54:13.528Z,10.30
2018-12-24T01:56:43.729Z,9.43
2018-12-24T01:59:16.785Z,10.20
2018-12-24T02:01:47.283Z,9.13
2018-12-24T02:04:18.749Z,9.70
2018-12-24T02:06:49.691Z,8.70
2018-12-24T02:09:39.058Z,11.50
2018-12-24T02:12:09.808Z,7.10
2018-12-24T02:14:40.959Z,7.23
2018-12-24T02:17:12.233Z,8.00
2018-12-24T02:19:42.885Z,7.60
2018-12-24T02:22:13.810Z,8.17
2018-12-24T02:24:44.292Z,8.33
2018-12-24T02:27:15.263Z,7.50
2018-12-24T02:29:46.008Z,8.03
2018-12-24T02:32:16.630Z,10.40
2018-12-24T02:34:49.087Z,8.50
2018-12-24T02:37:21.090Z,7.90
2018-12-24T02:39:52.310Z,12.23
2018-12-24T02:42:23.018Z,8.50
2018-12-24T02:44:53.569Z,8.60
2018-12-24T02:47:24.850Z,10.40
2018-12-24T02:49:55.732Z,8.77
2018-12-24T02:52:26.959Z,8.87
2018-12-24T02:54:57.801Z,9.77
2018-12-24T02:57:29.703Z,9.20
2018-12-24T03:00:00.481Z,8.37
2018-12-24T03:02:31.457Z,8.80
2018-12-24T03:05:02.204Z,9.13
2018-12-24T03:07:33.209Z,8.17
2018-12-24T03:10:03.529Z,11.43
2018-12-24T03:12:34.643Z,15.73
2018-12-24T03:15:05.611Z,10.70
2018-12-24T03:17:36.184Z,10.43
2018-12-24T03:20:06.764Z,10.77
2018-12-24T03:22:37.536Z,10.20
2018-12-24T03:25:08.310Z,10.87
2018-12-24T03:27:39.645Z,11.03
2018-12-24T03:30:10.430Z,11.20
2018-12-24T03:32:41.173Z,11.50
2018-12-24T03:35:12.033Z,10.60
2018-12-24T03:37:42.571Z,13.80
2018-12-24T03:40:13.286Z,12.63
2018-12-24T03:42:44.084Z,11.50
2018-12-24T03:45:14.655Z,10.30
2018-12-24T03:47:46.134Z,9.60
2018-12-24T03:50:16.743Z,10.77
2018-12-24T03:52:48.109Z,10.83
2018-12-24T03:55:18.408Z,12.23
2018-12-24T03:57:48.543Z,13.97
2018-12-24T04:00:19.363Z,10.57
2018-12-24T04:02:50.608Z,12.13
2018-12-24T04:05:21.490Z,14.47
2018-12-24T04:07:52.863Z,11.73
2018-12-24T04:10:23.744Z,12.57
2018-12-24T04:12:54.405Z,11.40
2018-12-24T04:15:25.013Z,11.23
2018-12-24T04:17:56.967Z,10.90
2018-12-24T04:20:29.236Z,10.93
2018-12-24T04:23:00.269Z,11.60
2018-12-24T04:25:31.201Z,11.73
2018-12-24T04:28:01.944Z,12.10
2018-12-24T04:30:32.768Z,14.57
2018-12-24T04:33:03.297Z,12.30
2018-12-24T04:35:33.980Z,12.60
2018-12-24T04:38:04.624Z,12.53
2018-12-24T04:40:35.842Z,12.93
2018-12-24T04:43:06.484Z,12.83
2018-12-24T04:45:37.088Z,13.27
2018-12-24T04:48:07.809Z,14.80
2018-12-24T04:50:38.435Z,16.27
2018-12-24T04:53:09.055Z,16.70
2018-12-24T04:55:40.225Z,15.40
2018-12-24T04:58:10.724Z,16.80
2018-12-24T05:00:41.378Z,13.90
2018-12-24T05:03:11.923Z,15.20
2018-12-24T05:05:42.491Z,15.40
2018-12-24T05:08:14.564Z,16.43
2018-12-24T05:10:45.311Z,15.90
2018-12-24T05:13:15.684Z,14.03
2018-12-24T05:15:46.689Z,13.80
2018-12-24T05:18:17.408Z,15.13
2018-12-24T05:20:48.124Z,14.00
2018-12-24T05:23:18.791Z,15.17
2018-12-24T05:25:49.211Z,14.47
2018-12-24T05:28:20.279Z,15.73
2018-12-24T05:30:50.685Z,17.60
2018-12-24T05:33:21.608Z,19.00
2018-12-24T05:35:52.398Z,17.07
2018-12-24T05:38:22.853Z,13.80
2018-12-24T05:40:55.353Z,13.90
2018-12-24T05:43:25.975Z,17.30
2018-12-24T05:45:56.503Z,12.80
2018-12-24T05:48:27.207Z,13.10
2018-12-24T05:50:57.567Z,16.70
2018-12-24T05:53:28.364Z,17.73
2018-12-24T05:55:58.844Z,16.07
2018-12-24T05:58:29.351Z,16.73
2018-12-24T06:00:59.808Z,19.53
2018-12-24T06:03:30.691Z,17.37
2018-12-24T06:06:01.212Z,20.17
2018-12-24T06:08:31.947Z,18.23
2018-12-24T06:11:02.653Z,20.97
2018-12-24T06:13:33.307Z,17.57
2018-12-24T06:16:05.441Z,21.43
2018-12-24T06:18:37.045Z,16.33
2018-12-24T06:21:07.591Z,19.93
2018-12-24T06:23:38.496Z,17.97
2018-12-24T06:26:09.408Z,21.17
2018-12-24T06:28:40.455Z,23.57
2018-12-24T06:31:10.775Z,17.30
2018-12-24T06:33:41.487Z,22.43
2018-12-24T06:36:13.531Z,21.27
2018-12-24T06:38:43.984Z,19.90
2018-12-24T06:41:14.695Z,16.83
2018-12-24T06:43:46.143Z,19.03
2018-12-24T06:46:16.526Z,20.57
2018-12-24T06:48:47.044Z,22.80
2018-12-24T06:51:17.603Z,29.50
2018-12-24T06:53:48.188Z,23.80
2018-12-24T06:56:18.625Z,22.63
2018-12-24T06:58:50.344Z,21.60
2018-12-24T07:01:21.727Z,20.67
2018-12-24T07:03:52.377Z,21.27
2018-12-24T07:06:23.111Z,22.23
2018-12-24T07:08:53.789Z,17.90
2018-12-24T07:11:24.925Z,16.43
2018-12-24T07:13:57.573Z,16.10
2018-12-24T07:16:27.957Z,14.20
2018-12-24T07:18:58.946Z,12.97
2018-12-24T07:21:29.417Z,14.00
2018-12-24T07:23:59.762Z,15.67
2018-12-24T07:26:30.649Z,17.83
2018-12-24T07:29:01.143Z,12.97
2018-12-24T07:31:31.686Z,13.50
2018-12-24T07:34:02.748Z,13.23
2018-12-24T07:36:33.098Z,15.23
2018-12-24T07:39:03.957Z,12.90
2018-12-24T07:41:34.713Z,11.63
2018-12-24T07:44:05.774Z,12.07
2018-12-24T07:46:36.644Z,11.73
2018-12-24T07:49:07.406Z,12.00
2018-12-24T07:51:40.287Z,12.27
2018-12-24T07:54:10.919Z,12.23
2018-12-24T07:56:41.334Z,12.80
2018-12-24T07:59:12.175Z,10.40
2018-12-24T08:01:42.976Z,10.83
2018-12-24T08:04:13.666Z,11.70
2018-12-24T08:06:44.206Z,11.07
2018-12-24T08:09:14.634Z,12.80
2018-12-24T08:11:45.272Z,11.53
2018-12-24T08:14:15.956Z,11.43
2018-12-24T08:16:47.064Z,16.73
2018-12-24T08:19:17.976Z,15.73
2018-12-24T08:21:49.818Z,18.30
2018-12-24T08:24:20.661Z,33.87
2018-12-24T08:26:53.703Z,16.97
2018-12-24T08:29:24.332Z,16.00
2018-12-24T08:31:55.821Z,15.33
2018-12-24T08:34:28.343Z,14.60
2018-12-24T08:36:58.873Z,14.77
2018-12-24T08:39:32.767Z,15.37
2018-12-24T08:42:03.297Z,16.87
2018-12-24T08:44:41.542Z,15.80
2018-12-24T08:47:07.073Z,15.17
2018-12-24T08:49:38.847Z,14.47
2018-12-24T08:52:09.975Z,12.70
2018-12-24T08:54:40.672Z,14.00
2018-12-24T08:57:11.373Z,13.03
2018-12-24T08:59:42.860Z,12.33
2018-12-24T09:02:13.808Z,12.80
2018-12-24T09:04:44.940Z,14.00
2018-12-24T09:07:15.763Z,17.20
2018-12-24T09:09:46.643Z,12.80
2018-12-24T09:12:17.134Z,13.27
2018-12-24T09:14:50.252Z,13.77
2018-12-24T09:17:21.427Z,13.53
2018-12-24T09:19:53.737Z,13.83
2018-12-24T09:22:24.250Z,14.37
2018-12-24T09:24:54.623Z,12.53
2018-12-24T09:27:25.888Z,12.63
2018-12-24T09:29:56.723Z,12.77
2018-12-24T09:32:27.321Z,11.40
2018-12-24T09:34:57.749Z,11.63
2018-12-24T09:37:28.581Z,12.47
2018-12-24T09:39:59.093Z,12.90
2018-12-24T09:42:31.212Z,12.00
2018-12-24T09:45:01.900Z,15.00
2018-12-24T09:47:32.612Z,13.53
2018-12-24T09:50:03.578Z,13.00
2018-12-24T09:52:34.058Z,14.33
2018-12-24T09:55:04.464Z,12.50
2018-12-24T09:57:35.182Z,14.20
2018-12-24T10:00:06.485Z,11.93
2018-12-24T10:02:42.481Z,11.90
2018-12-24T10:05:14.956Z,12.60
2018-12-24T10:07:46.351Z,11.23
2018-12-24T10:10:19.508Z,12.13
2018-12-24T10:12:50.085Z,11.73
2018-12-24T10:15:21.627Z,11.17
2018-12-24T10:17:52.383Z,11.30
2018-12-24T10:20:23.507Z,13.33
2018-12-24T10:22:54.237Z,11.87
2018-12-24T10:25:27.108Z,13.87
2018-12-24T10:27:57.358Z,13.50
2018-12-24T10:30:29.194Z,12.67
2018-12-24T10:33:00.094Z,15.37
2018-12-24T10:35:31.683Z,14.57
2018-12-24T10:38:02.301Z,15.60
2018-12-24T10:40:38.405Z,14.13
2018-12-24T10:43:09.372Z,16.13
2018-12-24T10:45:39.958Z,13.17
2018-12-24T10:48:11.046Z,14.47
2018-12-24T10:50:41.776Z,14.47
2018-12-24T10:53:15.335Z,12.97
2018-12-24T10:55:46.048Z,12.13
2018-12-24T10:58:16.926Z,12.93
2018-12-24T11:00:47.419Z,18.83
2018-12-24T11:03:18.420Z,12.70
2018-12-24T11:05:49.530Z,12.00
2018-12-24T11:08:20.141Z,18.07
2018-12-24T11:10:50.620Z,13.80
2018-12-24T11:13:21.910Z,13.97
2018-12-24T11:15:52.868Z,13.40
2018-12-24T11:18:23.293Z,13.30
2018-12-24T11:20:54.355Z,13.93
2018-12-24T11:23:25.018Z,14.20
2018-12-24T11:25:55.538Z,11.10
2018-12-24T11:28:26.244Z,13.43
2018-12-24T11:30:56.917Z,11.60
2018-12-24T11:33:27.667Z,13.70
2018-12-24T11:35:58.215Z,13.87
2018-12-24T11:38:28.576Z,13.70
2018-12-24T11:40:59.257Z,12.47
2018-12-24T11:43:30.391Z,12.73
2018-12-24T11:46:01.411Z,12.60
2018-12-24T11:48:32.483Z,13.80
2018-12-24T11:51:03.293Z,14.50
2018-12-24T11:53:34.751Z,15.00
2018-12-24T11:56:05.889Z,15.80
2018-12-24T11:58:36.941Z,16.00
2018-12-24T12:01:07.574Z,16.50
2018-12-24T12:03:38.292Z,14.50
2018-12-24T12:06:09.096Z,15.80
2018-12-24T12:08:39.811Z,16.77
2018-12-24T12:11:10.330Z,20.63
2018-12-24T12:13:41.179Z,21.07
2018-12-24T12:16:11.659Z,30.43
2018-12-24T12:18:42.412Z,21.07
2018-12-24T12:21:13.059Z,22.60
2018-12-24T12:23:43.627Z,21.57
2018-12-24T12:26:14.218Z,29.00
2018-12-24T12:28:44.933Z,15.67
2018-12-24T12:31:15.616Z,18.67
2018-12-24T12:33:47.128Z,23.63
2018-12-24T12:36:17.979Z,18.17
2018-12-24T12:38:49.172Z,19.67
2018-12-24T12:41:19.572Z,15.13
2018-12-24T12:43:50.751Z,16.17
2018-12-24T12:46:22.196Z,13.97
2018-12-24T12:48:52.498Z,15.00
2018-12-24T12:51:23.226Z,15.60
2018-12-24T12:53:54.578Z,14.10
2018-12-24T12:56:27.763Z,18.60
2018-12-24T12:58:58.675Z,15.07
2018-12-24T13:01:29.463Z,15.23
2018-12-24T13:04:00.034Z,14.43
2018-12-24T13:06:30.934Z,14.90
2018-12-24T13:09:01.361Z,13.83
2018-12-24T13:11:31.765Z,13.70
2018-12-24T13:14:02.361Z,15.80
2018-12-24T13:16:33.629Z,14.40
2018-12-24T13:19:03.816Z,15.87
2018-12-24T13:21:34.449Z,14.27
2018-12-24T13:24:05.570Z,15.43
2018-12-24T13:26:36.491Z,14.53
2018-12-24T13:29:07.029Z,14.33
2018-12-24T13:31:38.102Z,15.13
2018-12-24T13:34:08.658Z,14.80
2018-12-24T13:36:39.475Z,15.33
2018-12-24T13:39:10.499Z,16.83
2018-12-24T13:41:41.024Z,15.53
2018-12-24T13:44:11.529Z,17.23
2018-12-24T13:46:42.291Z,16.30
2018-12-24T13:49:12.747Z,15.67
2018-12-24T13:51:42.956Z,17.47
2018-12-24T13:54:13.563Z,15.83
2018-12-24T13:56:43.890Z,18.10
2018-12-24T13:59:15.668Z,17.23
2018-12-24T14:01:47.855Z,16.37
2018-12-24T14:04:18.384Z,19.40
2018-12-24T14:06:49.215Z,18.30
2018-12-24T14:09:20.504Z,17.40
2018-12-24T14:11:50.806Z,18.13
2018-12-24T14:14:21.362Z,17.83
2018-12-24T14:16:52.392Z,15.70
2018-12-24T14:19:23.236Z,19.50
2018-12-24T14:21:53.774Z,19.90
2018-12-24T14:24:24.461Z,17.97
2018-12-24T14:26:55.106Z,15.97
2018-12-24T14:29:25.473Z,24.80
2018-12-24T14:31:56.250Z,17.30
2018-12-24T14:34:27.261Z,19.63
2018-12-24T14:36:57.968Z,17.87
2018-12-24T14:39:28.740Z,30.93
2018-12-24T14:41:59.198Z,31.57
2018-12-24T14:44:31.187Z,28.23
2018-12-24T14:47:03.506Z,18.00
2018-12-24T14:49:34.219Z,22.40
2018-12-24T14:52:05.576Z,31.20
2018-12-24T14:54:36.690Z,18.33
2018-12-24T14:57:07.580Z,19.53
2018-12-24T14:59:38.055Z,17.53
2018-12-24T15:02:08.904Z,24.33
2018-12-24T15:04:39.426Z,14.80
2018-12-24T15:07:09.872Z,21.47
2018-12-24T15:09:40.393Z,15.63
2018-12-24T15:12:10.706Z,12.47
2018-12-24T15:14:42.627Z,14.43
2018-12-24T15:17:13.138Z,12.00
2018-12-24T15:19:43.873Z,11.90
2018-12-24T15:22:14.557Z,10.43
2018-12-24T15:24:45.185Z,11.50
2018-12-24T15:27:15.629Z,13.97
2018-12-24T15:29:46.775Z,11.70
2018-12-24T15:32:17.166Z,21.00
2018-12-24T15:34:47.907Z,12.63
2018-12-24T15:37:18.931Z,12.07
2018-12-24T15:39:50.006Z,12.47
2018-12-24T15:42:21.865Z,13.33
2018-12-24T15:44:53.142Z,12.70
2018-12-24T15:47:24.870Z,12.63
2018-12-24T15:49:55.415Z,11.43
2018-12-24T15:52:25.790Z,13.50
2018-12-24T15:54:56.730Z,11.37
2018-12-24T15:57:27.256Z,12.90
2018-12-24T15:59:58.228Z,14.57
2018-12-24T16:02:29.183Z,11.47
2018-12-24T16:04:59.901Z,13.53
2018-12-24T16:07:30.454Z,13.50
2018-12-24T16:10:02.016Z,10.97
2018-12-24T16:12:32.782Z,10.13
2018-12-24T16:15:03.527Z,13.40
2018-12-24T16:17:34.222Z,12.13
2018-12-24T16:20:04.924Z,12.50
2018-12-24T16:22:35.345Z,12.60
2018-12-24T16:25:06.309Z,11.83
2018-12-24T16:27:37.104Z,10.93
2018-12-24T16:30:09.013Z,11.80
2018-12-24T16:32:40.714Z,13.27
2018-12-24T16:35:11.376Z,12.10
2018-12-24T16:37:42.251Z,10.83
2018-12-24T16:40:13.485Z,14.33
2018-12-24T16:42:44.311Z,10.73
2018-12-24T16:45:15.549Z,12.40
2018-12-24T16:47:46.307Z,9.80
2018-12-24T16:50:17.290Z,11.43
2018-12-24T16:52:49.888Z,9.77
2018-12-24T16:55:20.711Z,11.13
2018-12-24T16:57:51.807Z,10.83
2018-12-24T17:00:22.541Z,10.63
2018-12-24T17:02:53.591Z,10.00
2018-12-24T17:05:24.447Z,8.50
2018-12-24T17:07:55.011Z,11.67
2018-12-24T17:10:27.133Z,13.50
2018-12-24T17:12:58.219Z,12.77
2018-12-24T17:15:30.468Z,11.17
2018-12-24T17:18:02.212Z,10.37
2018-12-24T17:20:32.962Z,9.97
2018-12-24T17:23:04.710Z,12.07
2018-12-24T17:25:35.273Z,15.43
2018-12-24T17:28:05.627Z,12.17
2018-12-24T17:30:36.088Z,9.50
2018-12-24T17:33:06.458Z,12.37
2018-12-24T17:35:37.854Z,14.30
2018-12-24T17:38:08.246Z,13.00
2018-12-24T17:40:38.935Z,11.50
2018-12-24T17:43:09.583Z,13.03
2018-12-24T17:45:41.247Z,10.40
2018-12-24T17:48:11.935Z,12.87
2018-12-24T17:50:43.508Z,12.23
2018-12-24T17:53:13.746Z,10.87
2018-12-24T17:55:44.132Z,13.07
2018-12-24T17:58:14.795Z,10.83
2018-12-24T18:00:45.588Z,12.20
2018-12-24T18:03:16.582Z,12.47
2018-12-24T18:05:47.162Z,11.63
2018-12-24T18:08:18.239Z,11.97
2018-12-24T18:10:50.576Z,16.60
2018-12-24T18:13:21.206Z,13.37
2018-12-24T18:15:51.754Z,13.83
2018-12-24T18:18:22.808Z,13.40
2018-12-24T18:20:53.551Z,13.53
2018-12-24T18:23:24.539Z,12.77
2018-12-24T18:25:56.058Z,13.73
2018-12-24T18:28:26.500Z,12.53
2018-12-24T18:30:57.645Z,12.20
2018-12-24T18:33:28.492Z,12.50
2018-12-24T18:35:59.261Z,12.90
2018-12-24T18:38:31.669Z,12.43
2018-12-24T18:41:02.209Z,12.17
2018-12-24T18:43:33.819Z,13.27
2018-12-24T18:46:04.548Z,14.10
2018-12-24T18:48:35.916Z,14.93
2018-12-24T18:51:06.165Z,14.73
2018-12-24T18:53:37.092Z,13.67
2018-12-24T18:56:08.080Z,13.73
2018-12-24T18:58:38.538Z,12.10
2018-12-24T19:01:08.916Z,12.47
2018-12-24T19:03:39.577Z,12.80
2018-12-24T19:06:10.219Z,12.20
2018-12-24T19:08:40.883Z,11.20
2018-12-24T19:11:11.784Z,11.50
2018-12-24T19:13:42.603Z,11.00
2018-12-24T19:16:14.455Z,11.83
2018-12-24T19:18:47.728Z,11.30
2018-12-24T19:21:18.363Z,10.43
2018-12-24T19:23:48.611Z,9.73
2018-12-24T19:26:19.619Z,10.87
2018-12-24T19:28:51.106Z,9.70
2018-12-24T19:31:21.549Z,10.03
2018-12-24T19:33:52.024Z,11.17
2018-12-24T19:36:23.268Z,10.10
2018-12-24T19:38:53.963Z,10.50
2018-12-24T19:41:24.501Z,11.73
2018-12-24T19:43:55.108Z,11.30
2018-12-24T19:46:26.838Z,9.83
2018-12-24T19:48:57.354Z,11.30
2018-12-24T19:51:29.560Z,10.87
2018-12-24T19:54:00.144Z,11.10
2018-12-24T19:56:31.186Z,13.83
2018-12-24T19:59:01.896Z,12.50
2018-12-24T20:01:32.792Z,11.77
2018-12-24T20:04:03.651Z,11.47
2018-12-24T20:06:35.408Z,12.20
2018-12-24T20:09:07.277Z,11.97
2018-12-24T20:11:39.563Z,11.50
2018-12-24T20:14:10.448Z,11.17
2018-12-24T20:16:41.146Z,11.23
2018-12-24T20:19:11.826Z,10.77
2018-12-24T20:21:42.550Z,10.90
2018-12-24T20:24:13.260Z,10.53
2018-12-24T20:26:43.684Z,11.17
2018-12-24T20:29:15.005Z,12.90
2018-12-24T20:31:45.416Z,11.83
2018-12-24T20:34:16.692Z,13.50
2018-12-24T20:36:47.583Z,13.03
2018-12-24T20:39:19.268Z,11.47
2018-12-24T20:41:50.787Z,12.60
2018-12-24T20:44:21.778Z,11.23
2018-12-24T20:46:54.214Z,12.87
2018-12-24T20:49:24.613Z,12.03
2018-12-24T20:51:56.306Z,10.67
2018-12-24T20:54:27.043Z,11.77
2018-12-24T20:56:57.732Z,11.90
2018-12-24T20:59:28.451Z,10.53
2018-12-24T21:01:58.851Z,11.57
2018-12-24T21:04:29.269Z,11.20
2018-12-24T21:07:00.716Z,11.23
2018-12-24T21:09:31.480Z,10.63
2018-12-24T21:12:02.799Z,12.17
2018-12-24T21:14:33.815Z,12.40
2018-12-24T21:17:04.181Z,11.23
2018-12-24T21:19:35.195Z,14.17
2018-12-24T21:22:05.946Z,11.60
2018-12-24T21:24:37.005Z,11.07
2018-12-24T21:27:07.619Z,11.63
2018-12-24T21:29:38.771Z,11.03
2018-12-24T21:32:09.426Z,12.33
2018-12-24T21:34:39.906Z,11.20
2018-12-24T21:37:11.063Z,11.83
2018-12-24T21:39:42.019Z,10.00
2018-12-24T21:42:12.534Z,10.67
2018-12-24T21:44:42.938Z,10.00
2018-12-24T21:47:13.658Z,10.70
2018-12-24T21:49:45.923Z,14.13
2018-12-24T21:52:16.851Z,10.67
2018-12-24T21:54:47.573Z,10.50
2018-12-24T21:57:18.407Z,11.13
2018-12-24T21:59:49.260Z,11.30
2018-12-24T22:02:19.645Z,9.90
2018-12-24T22:04:49.925Z,11.47
2018-12-24T22:07:20.485Z,10.73
2018-12-24T22:09:51.359Z,10.20
2018-12-24T22:12:22.407Z,12.87
2018-12-24T22:14:52.911Z,11.77
2018-12-24T22:17:24.655Z,10.87
2018-12-24T22:19:55.559Z,10.87
2018-12-24T22:22:27.092Z,11.20
2018-12-24T22:24:58.054Z,10.67
2018-12-24T22:27:29.051Z,14.30
2018-12-24T22:29:59.808Z,11.83
2018-12-24T22:32:30.492Z,10.00
2018-12-24T22:35:01.217Z,11.40
2018-12-24T22:37:32.602Z,11.57
2018-12-24T22:40:03.694Z,11.03
2018-12-24T22:42:34.233Z,12.30
2018-12-24T22:45:05.112Z,11.77
2018-12-24T22:47:35.839Z,10.40
2018-12-24T22:50:06.607Z,11.63
2018-12-24T22:52:37.662Z,11.17
2018-12-24T22:55:08.550Z,12.73
2018-12-24T22:57:38.969Z,12.17
2018-12-24T23:00:13.009Z,11.70
2018-12-24T23:02:43.626Z,12.03
2018-12-24T23:05:14.802Z,12.70
2018-12-24T23:07:45.419Z,13.20
2018-12-24T23:10:18.412Z,11.10
2018-12-24T23:12:50.051Z,12.87
2018-12-24T23:15:20.701Z,11.27
2018-12-24T23:17:51.900Z,12.00
2018-12-24T23:20:22.653Z,11.30
2018-12-24T23:22:53.965Z,11.07
2018-12-24T23:25:24.649Z,13.03
2018-12-24T23:27:55.233Z,10.07
2018-12-24T23:30:26.372Z,12.67
2018-12-24T23:32:56.701Z,15.40
2018-12-24T23:35:26.848Z,11.20
2018-12-24T23:37:58.538Z,11.83
2018-12-24T23:40:28.968Z,11.00
2018-12-24T23:42:59.557Z,10.90
2018-12-24T23:45:30.650Z,11.07
2018-12-24T23:48:01.827Z,11.70
2018-12-24T23:50:33.387Z,12.17
2018-12-24T23:53:03.863Z,9.87
2018-12-24T23:55:36.656Z,10.93
2018-12-24T23:58:07.556Z,11.63
